Time;durP1;ratioP1;P1;durP2;ratioP2;P2;SDS_P1;SDS_P2;PMS_P1;PMS_P2;Temp;Humidity;BMP_temperature;BMP_pressure;BME280_temperature;BME280_humidity;BME280_pressure;Samples;Min_cycle;Max_cycle;Signal;HPM_P1;HPM_P2
2023/06/16 00:01:03;;;;;;;8.77;7.80;;;;;;;;;;5054528;28;20477;-75
2023/06/16 00:03:33;;;;;;;7.80;7.00;;;;;;;;;;5054459;28;21015;-75
2023/06/16 00:06:03;;;;;;;8.43;7.30;;;;;;;;;;5054382;28;20487;-75
2023/06/16 00:08:30;;;;;;;8.33;7.50;;;;;;;;;;5053980;28;20933;-75
2023/06/16 00:10:59;;;;;;;9.00;7.67;;;;;;;;;;5054091;28;20473;-75
2023/06/16 00:13:26;;;;;;;8.20;7.47;;;;;;;;;;5053730;28;20448;-75
2023/06/16 00:15:53;;;;;;;8.80;7.33;;;;;;;;;;5054173;28;20453;-75
2023/06/16 00:18:20;;;;;;;9.10;7.70;;;;;;;;;;5053503;28;20489;-75
2023/06/16 00:20:51;;;;;;;12.80;8.97;;;;;;;;;;5054002;28;20499;-75
2023/06/16 00:23:20;;;;;;;10.13;9.13;;;;;;;;;;5053972;28;20457;-75
2023/06/16 00:25:47;;;;;;;17.40;8.40;;;;;;;;;;5053967;28;20460;-75
2023/06/16 00:28:16;;;;;;;8.50;7.70;;;;;;;;;;5053732;28;20448;-75
2023/06/16 00:30:46;;;;;;;11.53;8.30;;;;;;;;;;5053196;28;20484;-75
2023/06/16 00:33:15;;;;;;;9.00;8.20;;;;;;;;;;5053632;28;20551;-74
2023/06/16 00:35:43;;;;;;;9.30;8.40;;;;;;;;;;5053745;28;20507;-75
2023/06/16 00:38:10;;;;;;;9.53;7.83;;;;;;;;;;5053603;28;20496;-75
2023/06/16 00:40:37;;;;;;;15.90;8.53;;;;;;;;;;5053580;28;20567;-75
2023/06/16 00:43:04;;;;;;;8.30;7.50;;;;;;;;;;5053777;28;20968;-75
2023/06/16 00:45:33;;;;;;;10.30;7.97;;;;;;;;;;5053478;28;20456;-75
2023/06/16 00:48:00;;;;;;;10.63;9.50;;;;;;;;;;5053556;28;20448;-75
2023/06/16 00:50:28;;;;;;;11.03;8.30;;;;;;;;;;5053293;28;20468;-75
2023/06/16 00:52:55;;;;;;;10.37;8.23;;;;;;;;;;5053410;28;20456;-75
2023/06/16 00:55:24;;;;;;;8.93;7.87;;;;;;;;;;5053293;28;20464;-75
2023/06/16 00:57:52;;;;;;;9.60;8.20;;;;;;;;;;5053462;28;20980;-75
2023/06/16 01:00:20;;;;;;;9.40;7.97;;;;;;;;;;5052917;28;20538;-75
2023/06/16 01:02:50;;;;;;;10.30;8.70;;;;;;;;;;5053199;28;20467;-75
2023/06/16 01:05:20;;;;;;;9.70;8.07;;;;;;;;;;5053149;28;20452;-75
2023/06/16 01:07:51;;;;;;;10.43;7.77;;;;;;;;;;5053498;28;20445;-75
2023/06/16 01:10:19;;;;;;;10.20;8.77;;;;;;;;;;5052874;28;20508;-75
2023/06/16 01:12:51;;;;;;;13.17;8.40;;;;;;;;;;5053094;28;20953;-75
2023/06/16 01:15:20;;;;;;;9.27;8.23;;;;;;;;;;5053183;28;20461;-75
2023/06/16 01:17:53;;;;;;;9.37;8.37;;;;;;;;;;5053152;28;20492;-75
2023/06/16 01:20:26;;;;;;;11.33;10.23;;;;;;;;;;5052725;28;20516;-75
2023/06/16 01:22:57;;;;;;;10.97;8.87;;;;;;;;;;5053109;28;20814;-75
2023/06/16 01:25:28;;;;;;;9.83;8.83;;;;;;;;;;5052960;28;20470;-75
2023/06/16 01:27:57;;;;;;;9.80;8.90;;;;;;;;;;5053189;28;20448;-75
2023/06/16 01:30:26;;;;;;;11.93;9.50;;;;;;;;;;5052200;28;20469;-75
2023/06/16 01:32:54;;;;;;;10.47;9.30;;;;;;;;;;5052444;28;20460;-75
2023/06/16 01:35:22;;;;;;;11.70;9.50;;;;;;;;;;5052891;28;21027;-74
2023/06/16 01:37:51;;;;;;;9.90;8.80;;;;;;;;;;5052842;28;20480;-74
2023/06/16 01:40:18;;;;;;;22.97;9.60;;;;;;;;;;5052447;28;20472;-74
2023/06/16 01:42:47;;;;;;;11.37;10.27;;;;;;;;;;5054720;28;20885;-74
2023/06/16 01:45:15;;;;;;;11.93;9.83;;;;;;;;;;5057045;28;20475;-74
2023/06/16 01:47:43;;;;;;;10.47;9.37;;;;;;;;;;5056891;28;20455;-75
2023/06/16 01:50:11;;;;;;;10.70;9.07;;;;;;;;;;5056533;28;20479;-75
2023/06/16 01:52:38;;;;;;;10.13;9.03;;;;;;;;;;5056843;28;20453;-75
2023/06/16 01:55:06;;;;;;;12.90;9.53;;;;;;;;;;5056856;28;20451;-75
2023/06/16 01:57:33;;;;;;;13.13;10.03;;;;;;;;;;5056846;28;20455;-74
2023/06/16 02:00:05;;;;;;;12.37;9.50;;;;;;;;;;5056372;28;20477;-74
2023/06/16 02:02:32;;;;;;;11.13;10.10;;;;;;;;;;5056635;28;20444;-74
2023/06/16 02:05:03;;;;;;;10.63;9.53;;;;;;;;;;5056430;28;20448;-74
2023/06/16 02:07:31;;;;;;;11.57;9.33;;;;;;;;;;5056766;28;20937;-74
2023/06/16 02:09:59;;;;;;;11.63;10.23;;;;;;;;;;5056257;28;20472;-74
2023/06/16 02:12:26;;;;;;;13.80;9.90;;;;;;;;;;5056459;28;20456;-74
2023/06/16 02:14:54;;;;;;;10.30;9.23;;;;;;;;;;5056513;28;20818;-74
2023/06/16 02:17:26;;;;;;;15.57;10.43;;;;;;;;;;5056397;28;20465;-74
2023/06/16 02:19:54;;;;;;;10.87;9.87;;;;;;;;;;5055971;28;20498;-74
2023/06/16 02:22:21;;;;;;;12.40;9.77;;;;;;;;;;5056229;28;20506;-74
2023/06/16 02:24:48;;;;;;;16.70;10.83;;;;;;;;;;5056304;28;21018;-74
2023/06/16 02:27:16;;;;;;;12.50;10.27;;;;;;;;;;5056067;28;20453;-74
2023/06/16 02:29:43;;;;;;;11.17;9.70;;;;;;;;;;5055366;28;20469;-74
2023/06/16 02:32:10;;;;;;;11.53;10.30;;;;;;;;;;5056016;28;20456;-74
2023/06/16 02:34:39;;;;;;;13.87;10.87;;;;;;;;;;5056050;28;20464;-74
2023/06/16 02:37:06;;;;;;;12.97;10.80;;;;;;;;;;5055917;28;20460;-74
2023/06/16 02:39:33;;;;;;;18.73;14.67;;;;;;;;;;5055789;28;20503;-74
2023/06/16 02:42:00;;;;;;;14.50;13.00;;;;;;;;;;5055805;28;20460;-74
2023/06/16 02:44:27;;;;;;;11.40;10.27;;;;;;;;;;5055683;28;20471;-74
2023/06/16 02:46:56;;;;;;;12.47;10.77;;;;;;;;;;5055816;28;20983;-74
2023/06/16 02:49:26;;;;;;;11.83;10.63;;;;;;;;;;5055634;28;20555;-74
2023/06/16 02:51:54;;;;;;;18.63;10.97;;;;;;;;;;5055902;28;20488;-74
2023/06/16 02:54:21;;;;;;;15.43;11.37;;;;;;;;;;5055467;28;20530;-74
2023/06/16 02:56:48;;;;;;;12.37;11.17;;;;;;;;;;5055617;28;20448;-74
2023/06/16 02:59:15;;;;;;;13.27;11.90;;;;;;;;;;5055224;28;20857;-74
2023/06/16 03:01:44;;;;;;;21.60;12.20;;;;;;;;;;5055612;28;20453;-74
2023/06/16 03:04:11;;;;;;;11.90;10.50;;;;;;;;;;5055740;28;20456;-74
2023/06/16 03:06:39;;;;;;;12.07;10.13;;;;;;;;;;5055618;28;20938;-74
2023/06/16 03:09:07;;;;;;;10.33;9.03;;;;;;;;;;5055249;28;20448;-74
2023/06/16 03:11:34;;;;;;;10.10;8.70;;;;;;;;;;5054849;28;20452;-74
2023/06/16 03:14:01;;;;;;;13.33;10.00;;;;;;;;;;5054593;28;20473;-74
2023/06/16 03:16:28;;;;;;;15.37;10.63;;;;;;;;;;5054302;28;20809;-74
2023/06/16 03:18:56;;;;;;;12.40;10.07;;;;;;;;;;5054229;28;20564;-75
2023/06/16 03:21:24;;;;;;;11.43;10.30;;;;;;;;;;5054431;28;20970;-75
2023/06/16 03:23:51;;;;;;;14.37;12.87;;;;;;;;;;5054549;28;20456;-75
2023/06/16 03:26:22;;;;;;;12.57;11.30;;;;;;;;;;5054361;28;20461;-74
2023/06/16 03:28:49;;;;;;;14.73;11.30;;;;;;;;;;5053503;28;20453;-75
2023/06/16 03:31:17;;;;;;;14.87;12.97;;;;;;;;;;5053255;28;20461;-75
2023/06/16 03:33:44;;;;;;;14.07;11.37;;;;;;;;;;5053339;28;20976;-75
2023/06/16 03:36:12;;;;;;;12.03;10.77;;;;;;;;;;5053499;28;20452;-75
2023/06/16 03:38:39;;;;;;;11.27;10.10;;;;;;;;;;5052864;28;20582;-75
2023/06/16 03:41:06;;;;;;;13.90;11.00;;;;;;;;;;5053887;28;20473;-75
2023/06/16 03:43:35;;;;;;;11.73;9.87;;;;;;;;;;5054268;28;20463;-75
2023/06/16 03:46:02;;;;;;;12.87;9.27;;;;;;;;;;5053913;28;20465;-75
2023/06/16 03:48:30;;;;;;;13.23;10.57;;;;;;;;;;5053933;28;20456;-75
2023/06/16 03:50:57;;;;;;;12.83;10.43;;;;;;;;;;5053772;28;20827;-75
2023/06/16 03:53:24;;;;;;;11.93;10.73;;;;;;;;;;5053883;28;20878;-75
2023/06/16 03:55:52;;;;;;;11.93;9.90;;;;;;;;;;5053829;28;21000;-75
2023/06/16 03:58:20;;;;;;;11.37;10.03;;;;;;;;;;5053700;28;20457;-75
2023/06/16 04:00:48;;;;;;;9.70;8.70;;;;;;;;;;5053758;28;20477;-75
2023/06/16 04:03:16;;;;;;;11.70;9.17;;;;;;;;;;5053806;28;20456;-75
2023/06/16 04:05:43;;;;;;;14.13;11.50;;;;;;;;;;5053183;28;20844;-75
2023/06/16 04:08:10;;;;;;;12.00;9.80;;;;;;;;;;5053488;28;20453;-75
2023/06/16 04:10:37;;;;;;;14.50;9.93;;;;;;;;;;5053689;28;20588;-75
2023/06/16 04:13:04;;;;;;;12.00;10.00;;;;;;;;;;5053481;28;20456;-75
2023/06/16 04:15:31;;;;;;;11.63;9.30;;;;;;;;;;5053544;28;20455;-75
2023/06/16 04:18:00;;;;;;;13.57;10.87;;;;;;;;;;5053401;28;20461;-75
2023/06/16 04:20:27;;;;;;;13.40;10.63;;;;;;;;;;5053049;28;20493;-75
2023/06/16 04:22:54;;;;;;;14.10;11.70;;;;;;;;;;5053315;28;20452;-76
2023/06/16 04:25:22;;;;;;;12.07;10.90;;;;;;;;;;5053340;28;20819;-76
2023/06/16 04:27:50;;;;;;;15.30;9.80;;;;;;;;;;5053325;28;20453;-76
2023/06/16 04:30:22;;;;;;;14.63;10.10;;;;;;;;;;5052112;28;20465;-76
2023/06/16 04:32:49;;;;;;;12.10;9.77;;;;;;;;;;5053279;28;20452;-76
2023/06/16 04:35:17;;;;;;;14.83;10.30;;;;;;;;;;5052833;28;20464;-76
2023/06/16 04:37:44;;;;;;;12.60;11.33;;;;;;;;;;5053020;28;20463;-76
2023/06/16 04:40:12;;;;;;;12.93;9.67;;;;;;;;;;5052600;28;20960;-76
2023/06/16 04:42:39;;;;;;;14.60;10.67;;;;;;;;;;5052797;28;20456;-75
2023/06/16 04:45:07;;;;;;;14.70;11.73;;;;;;;;;;5052721;28;20464;-75
2023/06/16 04:47:35;;;;;;;12.63;10.53;;;;;;;;;;5052685;28;20461;-75
2023/06/16 04:50:02;;;;;;;13.00;11.07;;;;;;;;;;5052479;28;20477;-75
2023/06/16 04:52:31;;;;;;;14.43;10.73;;;;;;;;;;5052776;28;20465;-76
2023/06/16 04:54:58;;;;;;;16.90;10.43;;;;;;;;;;5052809;28;20453;-76
2023/06/16 04:57:25;;;;;;;13.80;10.37;;;;;;;;;;5052644;28;20457;-75
2023/06/16 04:59:52;;;;;;;12.43;10.83;;;;;;;;;;5052406;28;20492;-75
2023/06/16 05:02:20;;;;;;;11.57;10.07;;;;;;;;;;5046931;28;20533;-76
2023/06/16 05:04:48;;;;;;;16.93;11.77;;;;;;;;;;5052056;28;20657;-76
2023/06/16 05:07:15;;;;;;;11.30;10.20;;;;;;;;;;5052273;28;20968;-75
2023/06/16 05:09:43;;;;;;;14.00;11.10;;;;;;;;;;5052012;28;20568;-75
2023/06/16 05:12:11;;;;;;;16.53;10.63;;;;;;;;;;5052076;28;20452;-75
2023/06/16 05:14:38;;;;;;;13.50;10.60;;;;;;;;;;5052454;28;20536;-76
2023/06/16 05:17:05;;;;;;;17.67;10.50;;;;;;;;;;5051078;28;20449;-76
2023/06/16 05:19:33;;;;;;;14.23;9.53;;;;;;;;;;5051964;28;20523;-76
2023/06/16 05:22:00;;;;;;;9.03;8.20;;;;;;;;;;5052286;28;20510;-76
2023/06/16 05:24:27;;;;;;;9.77;8.90;;;;;;;;;;5052274;28;20853;-76
2023/06/16 05:26:56;;;;;;;12.23;7.70;;;;;;;;;;5052289;28;20456;-76
2023/06/16 05:29:23;;;;;;;7.70;6.97;;;;;;;;;;5051298;28;20473;-76
2023/06/16 05:31:50;;;;;;;9.17;7.57;;;;;;;;;;5052063;28;20445;-76
2023/06/16 05:34:17;;;;;;;10.00;9.00;;;;;;;;;;5052178;28;20865;-78
2023/06/16 05:36:44;;;;;;;9.10;7.40;;;;;;;;;;5053405;28;20449;-78
2023/06/16 05:39:12;;;;;;;8.70;7.80;;;;;;;;;;5053090;28;20555;-78
2023/06/16 05:41:39;;;;;;;11.53;7.33;;;;;;;;;;5053385;28;20500;-78
2023/06/16 05:44:08;;;;;;;11.33;7.40;;;;;;;;;;5053797;28;20977;-78
2023/06/16 05:46:35;;;;;;;7.60;6.90;;;;;;;;;;5053831;28;20461;-78
2023/06/16 05:49:02;;;;;;;9.77;8.80;;;;;;;;;;5052683;28;20456;-77
2023/06/16 05:51:30;;;;;;;10.30;8.13;;;;;;;;;;5051833;28;20449;-76
2023/06/16 05:53:57;;;;;;;8.20;7.40;;;;;;;;;;5051977;28;20952;-76
2023/06/16 05:56:24;;;;;;;11.73;8.40;;;;;;;;;;5051863;28;20453;-76
2023/06/16 05:58:51;;;;;;;10.87;8.30;;;;;;;;;;5051642;28;20513;-76
2023/06/16 06:01:20;;;;;;;12.13;7.50;;;;;;;;;;5051960;28;20877;-76
2023/06/16 06:03:47;;;;;;;8.07;7.30;;;;;;;;;;5051816;28;20461;-76
2023/06/16 06:06:14;;;;;;;9.37;7.87;;;;;;;;;;5051913;28;20460;-76
2023/06/16 06:08:41;;;;;;;7.70;6.97;;;;;;;;;;5051815;28;20894;-76
2023/06/16 06:11:09;;;;;;;8.43;7.50;;;;;;;;;;5051834;28;20469;-77
2023/06/16 06:13:36;;;;;;;9.27;7.50;;;;;;;;;;5052162;28;20831;-77
2023/06/16 06:16:03;;;;;;;7.47;6.87;;;;;;;;;;5051867;28;20460;-77
2023/06/16 06:18:32;;;;;;;8.57;6.93;;;;;;;;;;5051754;28;20472;-77
2023/06/16 06:20:59;;;;;;;8.77;7.97;;;;;;;;;;5051751;28;20993;-78
2023/06/16 06:23:26;;;;;;;14.10;6.80;;;;;;;;;;5051792;28;20461;-77
2023/06/16 06:25:53;;;;;;;7.00;6.33;;;;;;;;;;5051758;28;20456;-77
2023/06/16 06:28:20;;;;;;;7.10;6.40;;;;;;;;;;5053311;28;20456;-78
2023/06/16 06:30:47;;;;;;;10.73;7.23;;;;;;;;;;5055297;28;20479;-78
2023/06/16 06:33:15;;;;;;;7.07;6.37;;;;;;;;;;5055518;28;20457;-78
2023/06/16 06:35:43;;;;;;;6.10;5.70;;;;;;;;;;5056325;28;20456;-78
2023/06/16 06:38:10;;;;;;;8.17;6.50;;;;;;;;;;5055898;28;20456;-78
2023/06/16 06:40:37;;;;;;;6.60;6.07;;;;;;;;;;5055641;28;20498;-77
2023/06/16 06:43:04;;;;;;;6.20;5.70;;;;;;;;;;5055070;28;20840;-78
2023/06/16 06:45:32;;;;;;;6.97;5.03;;;;;;;;;;5055095;28;20468;-77
2023/06/16 06:47:59;;;;;;;7.43;4.47;;;;;;;;;;5055150;28;20949;-77
2023/06/16 06:50:26;;;;;;;5.07;4.63;;;;;;;;;;5054808;28;20464;-77
2023/06/16 06:52:54;;;;;;;5.47;5.00;;;;;;;;;;5054760;28;20456;-77
2023/06/16 06:55:22;;;;;;;5.50;5.10;;;;;;;;;;5054746;28;20483;-77
2023/06/16 06:57:49;;;;;;;5.90;5.30;;;;;;;;;;5054855;28;20452;-77
2023/06/16 07:00:17;;;;;;;5.67;5.27;;;;;;;;;;5054419;28;20495;-77
2023/06/16 07:02:44;;;;;;;5.20;4.80;;;;;;;;;;5054602;28;20459;-77
2023/06/16 07:05:11;;;;;;;5.50;5.00;;;;;;;;;;5054735;28;20464;-77
2023/06/16 07:07:38;;;;;;;5.70;5.30;;;;;;;;;;5055004;28;20459;-77
2023/06/16 07:10:08;;;;;;;5.03;4.53;;;;;;;;;;5054662;28;20510;-77
2023/06/16 07:12:35;;;;;;;5.30;4.60;;;;;;;;;;5054602;28;20451;-77
2023/06/16 07:15:02;;;;;;;7.43;4.20;;;;;;;;;;5054495;28;20472;-77
2023/06/16 07:17:31;;;;;;;4.10;3.80;;;;;;;;;;5054499;28;20460;-77
2023/06/16 07:19:58;;;;;;;4.60;4.20;;;;;;;;;;5054300;28;20488;-77
2023/06/16 07:22:25;;;;;;;4.07;3.70;;;;;;;;;;5055116;28;20456;-78
2023/06/16 07:24:52;;;;;;;8.60;4.20;;;;;;;;;;5056798;28;20459;-78
2023/06/16 07:27:21;;;;;;;4.73;3.87;;;;;;;;;;5056773;28;20550;-78
2023/06/16 07:29:48;;;;;;;4.47;4.07;;;;;;;;;;5056776;28;20871;-78
2023/06/16 07:32:15;;;;;;;5.13;4.67;;;;;;;;;;5057849;28;20209;-78
2023/06/16 07:34:42;;;;;;;4.43;4.13;;;;;;;;;;5056530;28;20777;-78
2023/06/16 07:37:09;;;;;;;4.40;4.10;;;;;;;;;;5056495;28;20467;-78
2023/06/16 07:39:38;;;;;;;5.17;3.40;;;;;;;;;;5057856;28;20516;-79
2023/06/16 07:42:05;;;;;;;6.60;4.27;;;;;;;;;;5057017;28;20455;-78
2023/06/16 07:44:34;;;;;;;10.33;4.03;;;;;;;;;;5056716;28;20952;-79
2023/06/16 07:47:01;;;;;;;4.70;4.20;;;;;;;;;;5056308;28;20488;-78
2023/06/16 07:49:29;;;;;;;4.63;4.10;;;;;;;;;;5055676;28;20476;-78
2023/06/16 07:51:56;;;;;;;6.53;5.30;;;;;;;;;;5055315;28;20448;-78
2023/06/16 07:54:23;;;;;;;4.23;3.90;;;;;;;;;;5055191;28;20460;-78
2023/06/16 07:56:51;;;;;;;3.93;3.63;;;;;;;;;;5056041;28;20457;-78
2023/06/16 07:59:18;;;;;;;6.60;4.00;;;;;;;;;;5053982;28;21033;-77
2023/06/16 08:01:47;;;;;;;4.70;4.30;;;;;;;;;;5054592;28;20514;-78
2023/06/16 08:04:14;;;;;;;4.40;4.00;;;;;;;;;;5056038;28;20499;-78
2023/06/16 08:06:41;;;;;;;4.90;3.90;;;;;;;;;;5047900;28;20533;-78
2023/06/16 08:09:08;;;;;;;5.17;4.10;;;;;;;;;;5052776;28;20432;-78
2023/06/16 08:11:35;;;;;;;4.43;4.13;;;;;;;;;;5053966;28;20502;-78
2023/06/16 08:14:03;;;;;;;6.53;3.90;;;;;;;;;;5053195;28;20828;-78
2023/06/16 08:16:30;;;;;;;7.73;4.30;;;;;;;;;;5053922;28;21018;-78
2023/06/16 08:18:59;;;;;;;7.10;4.40;;;;;;;;;;5054515;28;20459;-78
2023/06/16 08:21:26;;;;;;;4.50;4.10;;;;;;;;;;5053664;28;20882;-78
2023/06/16 08:23:53;;;;;;;8.23;4.50;;;;;;;;;;5053422;28;20467;-78
2023/06/16 08:26:20;;;;;;;4.80;4.30;;;;;;;;;;5054078;28;20985;-77
2023/06/16 08:28:48;;;;;;;4.03;3.73;;;;;;;;;;5053703;28;20461;-78
2023/06/16 08:31:15;;;;;;;5.07;4.57;;;;;;;;;;5052863;28;20488;-77
2023/06/16 08:33:42;;;;;;;4.53;4.13;;;;;;;;;;5052754;28;20493;-78
2023/06/16 08:36:10;;;;;;;7.47;4.80;;;;;;;;;;5053247;28;20471;-78
2023/06/16 08:38:38;;;;;;;4.37;3.97;;;;;;;;;;5052333;28;20479;-77
2023/06/16 08:41:06;;;;;;;10.83;5.20;;;;;;;;;;5052027;28;20863;-77
2023/06/16 08:43:36;;;;;;;8.23;4.90;;;;;;;;;;5052052;28;20480;-77
2023/06/16 08:46:05;;;;;;;12.33;4.60;;;;;;;;;;5052560;28;20807;-78
2023/06/16 08:48:34;;;;;;;5.87;4.30;;;;;;;;;;5052442;28;20457;-78
2023/06/16 08:51:01;;;;;;;5.00;3.83;;;;;;;;;;5051664;28;20488;-77
2023/06/16 08:53:33;;;;;;;7.40;3.70;;;;;;;;;;5051824;28;20488;-77
2023/06/16 08:56:02;;;;;;;5.60;4.23;;;;;;;;;;5052862;28;20953;-78
2023/06/16 08:58:30;;;;;;;6.43;4.43;;;;;;;;;;5052919;28;20461;-77
2023/06/16 09:00:58;;;;;;;4.90;4.50;;;;;;;;;;5052848;28;20476;-78
2023/06/16 09:03:25;;;;;;;5.53;4.37;;;;;;;;;;5052934;28;20445;-78
2023/06/16 09:05:53;;;;;;;5.10;3.87;;;;;;;;;;5052373;28;20468;-78
2023/06/16 09:08:21;;;;;;;4.40;4.00;;;;;;;;;;5051421;28;20457;-78
2023/06/16 09:10:54;;;;;;;5.00;4.50;;;;;;;;;;5051729;28;20496;-77
2023/06/16 09:13:22;;;;;;;5.27;4.53;;;;;;;;;;5052173;28;20460;-78
2023/06/16 09:15:49;;;;;;;11.10;5.27;;;;;;;;;;5054854;28;20456;-79
2023/06/16 09:18:17;;;;;;;5.00;4.50;;;;;;;;;;5056159;28;20484;-79
2023/06/16 09:20:53;;;;;;;9.50;4.57;;;;;;;;;;5056229;28;20465;-80
2023/06/16 09:23:29;;;;;;;5.50;3.87;;;;;;;;;;5055675;28;20517;-77
2023/06/16 09:25:58;;;;;;;3.87;3.47;;;;;;;;;;5051377;28;20460;-78
2023/06/16 09:28:35;;;;;;;5.00;3.83;;;;;;;;;;5051182;28;20448;-77
2023/06/16 09:31:03;;;;;;;4.07;3.77;;;;;;;;;;5050103;28;20531;-77
2023/06/16 09:33:31;;;;;;;3.90;3.40;;;;;;;;;;5050910;28;20497;-77
2023/06/16 09:35:58;;;;;;;6.93;3.80;;;;;;;;;;5050946;28;20539;-77
2023/06/16 09:38:26;;;;;;;4.23;3.80;;;;;;;;;;5050661;28;20506;-77
2023/06/16 09:40:53;;;;;;;4.10;3.77;;;;;;;;;;5051300;28;20476;-78
2023/06/16 09:43:22;;;;;;;5.67;4.20;;;;;;;;;;5050652;28;20456;-77
2023/06/16 09:45:57;;;;;;;5.20;4.70;;;;;;;;;;5050879;28;20465;-77
2023/06/16 09:48:27;;;;;;;4.37;3.97;;;;;;;;;;5050119;28;20464;-77
2023/06/16 09:50:55;;;;;;;4.13;3.73;;;;;;;;;;5051001;28;20504;-77
2023/06/16 09:53:23;;;;;;;6.57;4.27;;;;;;;;;;5052204;28;20469;-77
2023/06/16 09:55:51;;;;;;;7.20;4.50;;;;;;;;;;5051886;28;20456;-77
2023/06/16 09:58:18;;;;;;;6.63;3.80;;;;;;;;;;5051780;28;20491;-77
2023/06/16 10:00:47;;;;;;;4.80;4.10;;;;;;;;;;5056129;28;20475;-80
2023/06/16 10:03:14;;;;;;;6.03;3.73;;;;;;;;;;5058524;28;20487;-80
2023/06/16 10:05:42;;;;;;;5.23;4.73;;;;;;;;;;5061574;28;20528;-80
2023/06/16 10:08:09;;;;;;;5.83;4.27;;;;;;;;;;5061218;28;20456;-80
2023/06/16 10:10:38;;;;;;;6.00;4.30;;;;;;;;;;5062086;28;20503;-80
2023/06/16 10:13:06;;;;;;;6.93;6.23;;;;;;;;;;5062095;28;20922;-80
2023/06/16 10:15:35;;;;;;;11.30;4.67;;;;;;;;;;5061670;28;20502;-79
2023/06/16 10:18:05;;;;;;;5.00;3.57;;;;;;;;;;5062454;28;20460;-79
2023/06/16 10:20:33;;;;;;;4.60;4.10;;;;;;;;;;5062479;28;20477;-79
2023/06/16 10:23:00;;;;;;;4.27;3.87;;;;;;;;;;5062105;28;20449;-79
2023/06/16 10:25:30;;;;;;;5.03;3.80;;;;;;;;;;5062044;28;20491;-80
2023/06/16 10:28:00;;;;;;;5.00;4.50;;;;;;;;;;5062835;28;20479;-79
2023/06/16 10:30:28;;;;;;;7.50;4.53;;;;;;;;;;5061887;28;20924;-80
2023/06/16 10:32:58;;;;;;;4.87;4.47;;;;;;;;;;5062407;28;20539;-79
2023/06/16 10:35:26;;;;;;;4.63;3.87;;;;;;;;;;5061694;28;20460;-79
2023/06/16 10:37:54;;;;;;;7.50;5.07;;;;;;;;;;5061244;28;20461;-79
2023/06/16 10:40:22;;;;;;;7.93;4.10;;;;;;;;;;5061569;28;20491;-79
2023/06/16 10:42:51;;;;;;;6.80;5.33;;;;;;;;;;5062365;28;20809;-79
2023/06/16 10:45:25;;;;;;;6.17;4.50;;;;;;;;;;5062216;28;20524;-79
2023/06/16 10:47:57;;;;;;;6.40;4.40;;;;;;;;;;5062547;28;20448;-80
2023/06/16 10:50:31;;;;;;;5.43;4.63;;;;;;;;;;5062616;28;20468;-79
2023/06/16 10:53:08;;;;;;;6.73;4.67;;;;;;;;;;5062550;28;20447;-79
2023/06/16 10:55:37;;;;;;;4.90;4.23;;;;;;;;;;5062033;28;20456;-79
2023/06/16 10:58:23;;;;;;;6.83;4.50;;;;;;;;;;5061758;28;20483;-79
2023/06/16 11:01:07;;;;;;;4.83;4.20;;;;;;;;;;5061501;28;20475;-79
2023/06/16 11:03:39;;;;;;;5.43;4.60;;;;;;;;;;5061613;28;20520;-80
2023/06/16 11:06:07;;;;;;;6.07;4.57;;;;;;;;;;5059400;28;20479;-79
2023/06/16 11:08:49;;;;;;;6.33;5.10;;;;;;;;;;5059343;28;21026;-80
2023/06/16 11:11:17;;;;;;;5.47;4.77;;;;;;;;;;5059601;28;20547;-79
2023/06/16 11:13:44;;;;;;;5.40;4.50;;;;;;;;;;5061406;28;20452;-79
2023/06/16 11:16:11;;;;;;;5.87;4.10;;;;;;;;;;5059034;28;20457;-79
2023/06/16 11:18:38;;;;;;;5.67;4.20;;;;;;;;;;5061460;28;20459;-79
2023/06/16 11:21:06;;;;;;;6.30;4.93;;;;;;;;;;5061111;28;20472;-79
2023/06/16 11:23:35;;;;;;;6.83;4.50;;;;;;;;;;5060215;28;20449;-79
2023/06/16 11:26:06;;;;;;;4.57;4.10;;;;;;;;;;5059185;28;20445;-79
2023/06/16 11:28:33;;;;;;;5.33;3.90;;;;;;;;;;5059145;28;20456;-79
2023/06/16 11:31:01;;;;;;;3.57;3.27;;;;;;;;;;5059301;28;20491;-79
2023/06/16 11:33:28;;;;;;;4.67;4.07;;;;;;;;;;5058454;28;20945;-80
2023/06/16 11:35:57;;;;;;;4.70;4.03;;;;;;;;;;5059880;28;20952;-79
2023/06/16 11:38:25;;;;;;;5.93;3.80;;;;;;;;;;5059608;28;20487;-80
2023/06/16 11:40:54;;;;;;;7.37;4.80;;;;;;;;;;5059107;28;20469;-79
2023/06/16 11:43:24;;;;;;;7.07;4.40;;;;;;;;;;5059575;28;20449;-79
2023/06/16 11:45:52;;;;;;;7.30;4.93;;;;;;;;;;5059212;28;20855;-79
2023/06/16 11:48:19;;;;;;;5.00;4.40;;;;;;;;;;5059022;28;20548;-79
2023/06/16 11:50:47;;;;;;;5.10;4.37;;;;;;;;;;5057713;28;20931;-79
2023/06/16 11:53:15;;;;;;;6.80;4.70;;;;;;;;;;5058935;28;20453;-79
2023/06/16 11:55:48;;;;;;;8.70;4.90;;;;;;;;;;5059414;28;20448;-79
2023/06/16 11:58:17;;;;;;;5.60;5.07;;;;;;;;;;5059401;28;20572;-78
2023/06/16 12:00:45;;;;;;;9.10;6.10;;;;;;;;;;5058947;28;20603;-79
2023/06/16 12:03:12;;;;;;;6.33;5.50;;;;;;;;;;5057974;28;20829;-79
2023/06/16 12:05:41;;;;;;;6.30;5.70;;;;;;;;;;5058758;28;20456;-79
2023/06/16 12:08:08;;;;;;;8.00;5.30;;;;;;;;;;5058708;28;20479;-79
2023/06/16 12:10:35;;;;;;;5.67;5.00;;;;;;;;;;5055308;28;20484;-77
2023/06/16 12:13:02;;;;;;;7.23;5.90;;;;;;;;;;5053414;28;20507;-77
2023/06/16 12:15:31;;;;;;;8.03;6.23;;;;;;;;;;5053695;28;20457;-77
2023/06/16 12:17:58;;;;;;;6.00;5.40;;;;;;;;;;5055124;28;20957;-78
2023/06/16 12:20:25;;;;;;;5.80;5.30;;;;;;;;;;5054933;28;20499;-78
2023/06/16 12:22:55;;;;;;;7.13;6.43;;;;;;;;;;5053839;28;20531;-78
2023/06/16 12:25:23;;;;;;;8.40;6.00;;;;;;;;;;5053881;28;20958;-78
2023/06/16 12:27:51;;;;;;;9.30;6.10;;;;;;;;;;5054707;28;20801;-78
2023/06/16 12:30:19;;;;;;;5.50;4.80;;;;;;;;;;5054438;28;20542;-78
2023/06/16 12:32:47;;;;;;;6.57;5.27;;;;;;;;;;5055159;28;20495;-78
2023/06/16 12:35:24;;;;;;;5.83;5.23;;;;;;;;;;5054862;28;20452;-78
2023/06/16 12:37:51;;;;;;;8.30;5.30;;;;;;;;;;5055223;28;20480;-78
2023/06/16 12:40:18;;;;;;;5.83;5.33;;;;;;;;;;5055551;28;20503;-78
2023/06/16 12:42:46;;;;;;;5.73;5.23;;;;;;;;;;5054982;28;20444;-77
2023/06/16 12:45:13;;;;;;;5.03;4.53;;;;;;;;;;5055190;28;20965;-78
2023/06/16 12:47:40;;;;;;;7.37;4.83;;;;;;;;;;5055913;28;20453;-78
2023/06/16 12:50:09;;;;;;;5.33;4.83;;;;;;;;;;5055441;28;20476;-78
2023/06/16 12:52:36;;;;;;;6.40;4.77;;;;;;;;;;5047933;28;20555;-76
2023/06/16 12:55:03;;;;;;;5.47;4.83;;;;;;;;;;5043489;28;20941;-78
2023/06/16 12:57:31;;;;;;;7.33;5.13;;;;;;;;;;5055390;28;20453;-79
2023/06/16 12:59:58;;;;;;;9.23;5.00;;;;;;;;;;5055046;28;20886;-78
2023/06/16 13:02:25;;;;;;;5.43;4.93;;;;;;;;;;5055479;28;20969;-78
2023/06/16 13:04:52;;;;;;;5.27;4.80;;;;;;;;;;5053669;28;21020;-78
2023/06/16 13:07:21;;;;;;;6.93;6.33;;;;;;;;;;5051569;28;20461;-78
2023/06/16 13:09:48;;;;;;;6.50;5.80;;;;;;;;;;5053593;28;20476;-78
2023/06/16 13:12:15;;;;;;;7.03;4.60;;;;;;;;;;5053721;28;20495;-78
2023/06/16 13:14:42;;;;;;;5.80;5.10;;;;;;;;;;5051344;28;20857;-76
2023/06/16 13:17:09;;;;;;;5.80;5.00;;;;;;;;;;5051020;28;20463;-76
2023/06/16 13:19:37;;;;;;;6.17;5.57;;;;;;;;;;5050778;28;20480;-76
2023/06/16 13:22:06;;;;;;;7.27;5.17;;;;;;;;;;5050790;28;20538;-77
2023/06/16 13:24:35;;;;;;;6.10;5.50;;;;;;;;;;5050795;28;20965;-77
2023/06/16 13:27:02;;;;;;;5.07;4.67;;;;;;;;;;5051267;28;20448;-77
2023/06/16 13:29:29;;;;;;;6.80;5.93;;;;;;;;;;5051280;28;20472;-75
2023/06/16 13:31:56;;;;;;;5.53;5.07;;;;;;;;;;5052417;28;20591;-76
2023/06/16 13:34:23;;;;;;;5.07;4.47;;;;;;;;;;5052112;28;20900;-76
2023/06/16 13:36:51;;;;;;;4.40;4.00;;;;;;;;;;5051995;28;20504;-76
2023/06/16 13:39:18;;;;;;;4.60;4.10;;;;;;;;;;5051409;28;20828;-76
2023/06/16 13:41:47;;;;;;;5.57;4.20;;;;;;;;;;5052262;28;20456;-76
2023/06/16 13:44:14;;;;;;;5.40;3.90;;;;;;;;;;5052128;28;20464;-76
2023/06/16 13:46:41;;;;;;;5.07;4.60;;;;;;;;;;5052100;28;20457;-76
2023/06/16 13:49:08;;;;;;;4.80;4.40;;;;;;;;;;5051852;28;20448;-76
2023/06/16 13:51:35;;;;;;;5.00;4.50;;;;;;;;;;5051891;28;20568;-76
2023/06/16 13:54:04;;;;;;;5.10;4.60;;;;;;;;;;5052206;28;20981;-78
2023/06/16 13:56:31;;;;;;;5.37;4.10;;;;;;;;;;5052809;28;20459;-78
2023/06/16 13:58:59;;;;;;;3.87;3.57;;;;;;;;;;5052113;28;20464;-75
2023/06/16 14:01:26;;;;;;;5.67;4.33;;;;;;;;;;5051984;28;20444;-76
2023/06/16 14:03:54;;;;;;;4.80;3.90;;;;;;;;;;5052557;28;20472;-76
2023/06/16 14:06:21;;;;;;;6.17;4.23;;;;;;;;;;5052441;28;20476;-76
2023/06/16 14:08:51;;;;;;;6.37;5.30;;;;;;;;;;5052516;28;20468;-77
2023/06/16 14:11:18;;;;;;;5.37;4.87;;;;;;;;;;5052648;28;20544;-78
2023/06/16 14:13:46;;;;;;;6.83;4.57;;;;;;;;;;5052426;28;20456;-77
2023/06/16 14:16:15;;;;;;;4.83;4.43;;;;;;;;;;5052550;28;20449;-77
2023/06/16 14:18:42;;;;;;;6.93;5.03;;;;;;;;;;5052219;28;20456;-77
2023/06/16 14:21:09;;;;;;;5.50;5.00;;;;;;;;;;5052583;28;20473;-76
2023/06/16 14:23:37;;;;;;;6.00;5.30;;;;;;;;;;5052226;28;20453;-78
2023/06/16 14:26:04;;;;;;;6.60;4.40;;;;;;;;;;5052818;28;20457;-76
2023/06/16 14:28:32;;;;;;;8.53;5.07;;;;;;;;;;5052484;28;20949;-76
2023/06/16 14:30:59;;;;;;;5.50;5.00;;;;;;;;;;5052256;28;20488;-75
2023/06/16 14:33:28;;;;;;;5.07;4.57;;;;;;;;;;5052129;28;20542;-76
2023/06/16 14:35:55;;;;;;;5.60;4.33;;;;;;;;;;5052054;28;20505;-76
2023/06/16 14:38:23;;;;;;;8.83;4.67;;;;;;;;;;5051924;28;20511;-76
2023/06/16 14:40:50;;;;;;;5.40;4.23;;;;;;;;;;5052121;28;20499;-75